sensor_id;sensor_type;location;lat;lon;timestamp;temperature;humidity
20246;DHT22;10281;54.406;18.556;2023-06-26T00:01:55;14.60;99.90
20246;DHT22;10281;54.406;18.556;2023-06-26T00:04:22;14.60;99.90
20246;DHT22;10281;54.406;18.556;2023-06-26T00:06:48;14.60;99.90
20246;DHT22;10281;54.406;18.556;2023-06-26T00:09:15;14.60;99.90
20246;DHT22;10281;54.406;18.556;2023-06-26T00:11:42;14.60;99.90
20246;DHT22;10281;54.406;18.556;2023-06-26T00:14:08;14.60;99.90
20246;DHT22;10281;54.406;18.556;2023-06-26T00:16:35;14.60;99.90
20246;DHT22;10281;54.406;18.556;2023-06-26T00:19:02;14.50;99.90
20246;DHT22;10281;54.406;18.556;2023-06-26T00:21:29;14.50;99.90
20246;DHT22;10281;54.406;18.556;2023-06-26T00:23:55;14.50;99.90
20246;DHT22;10281;54.406;18.556;2023-06-26T00:26:22;14.50;99.90
20246;DHT22;10281;54.406;18.556;2023-06-26T00:28:50;14.50;99.90
20246;DHT22;10281;54.406;18.556;2023-06-26T00:31:16;14.50;99.90
20246;DHT22;10281;54.406;18.556;2023-06-26T00:33:43;14.40;99.90
20246;DHT22;10281;54.406;18.556;2023-06-26T00:36:10;14.40;99.90
20246;DHT22;10281;54.406;18.556;2023-06-26T00:38:36;14.30;99.90
20246;DHT22;10281;54.406;18.556;2023-06-26T00:41:03;14.30;99.90
20246;DHT22;10281;54.406;18.556;2023-06-26T00:43:31;14.30;99.90
20246;DHT22;10281;54.406;18.556;2023-06-26T00:45:57;14.40;99.90
20246;DHT22;10281;54.406;18.556;2023-06-26T00:48:24;14.40;99.90
20246;DHT22;10281;54.406;18.556;2023-06-26T00:50:50;14.40;99.90
20246;DHT22;10281;54.406;18.556;2023-06-26T00:53:18;14.40;99.90
20246;DHT22;10281;54.406;18.556;2023-06-26T00:55:45;14.30;99.90
20246;DHT22;10281;54.406;18.556;2023-06-26T00:58:12;14.30;99.90
20246;DHT22;10281;54.406;18.556;2023-06-26T01:00:39;14.30;99.90
20246;DHT22;10281;54.406;18.556;2023-06-26T01:03:06;14.30;99.90
20246;DHT22;10281;54.406;18.556;2023-06-26T01:05:32;14.30;99.90
20246;DHT22;10281;54.406;18.556;2023-06-26T01:07:59;14.30;99.90
20246;DHT22;10281;54.406;18.556;2023-06-26T01:10:26;14.30;99.90
20246;DHT22;10281;54.406;18.556;2023-06-26T01:12:54;14.30;99.90
20246;DHT22;10281;54.406;18.556;2023-06-26T01:15:20;14.20;99.90
20246;DHT22;10281;54.406;18.556;2023-06-26T01:17:47;14.20;99.90
20246;DHT22;10281;54.406;18.556;2023-06-26T01:20:15;14.20;99.90
20246;DHT22;10281;54.406;18.556;2023-06-26T01:22:47;14.10;99.90
20246;DHT22;10281;54.406;18.556;2023-06-26T01:25:28;14.10;99.90
20246;DHT22;10281;54.406;18.556;2023-06-26T01:27:53;14.10;99.90
20246;DHT22;10281;54.406;18.556;2023-06-26T01:30:21;14.10;99.90
20246;DHT22;10281;54.406;18.556;2023-06-26T01:32:49;14.10;99.90
20246;DHT22;10281;54.406;18.556;2023-06-26T01:35:17;14.10;99.90
20246;DHT22;10281;54.406;18.556;2023-06-26T01:37:44;14.00;99.90
20246;DHT22;10281;54.406;18.556;2023-06-26T01:40:11;14.00;99.90
20246;DHT22;10281;54.406;18.556;2023-06-26T01:42:37;14.00;99.90
20246;DHT22;10281;54.406;18.556;2023-06-26T01:45:21;14.00;99.90
20246;DHT22;10281;54.406;18.556;2023-06-26T01:47:49;14.00;99.90
20246;DHT22;10281;54.406;18.556;2023-06-26T01:50:21;14.00;99.90
20246;DHT22;10281;54.406;18.556;2023-06-26T01:53:02;13.90;99.90
20246;DHT22;10281;54.406;18.556;2023-06-26T01:55:41;13.90;99.90
20246;DHT22;10281;54.406;18.556;2023-06-26T01:58:09;13.90;99.90
20246;DHT22;10281;54.406;18.556;2023-06-26T02:00:37;13.80;99.90
20246;DHT22;10281;54.406;18.556;2023-06-26T02:03:03;13.80;99.90
20246;DHT22;10281;54.406;18.556;2023-06-26T02:05:32;13.80;99.90
20246;DHT22;10281;54.406;18.556;2023-06-26T02:07:59;13.80;99.90
20246;DHT22;10281;54.406;18.556;2023-06-26T02:10:27;13.80;99.90
20246;DHT22;10281;54.406;18.556;2023-06-26T02:12:53;13.70;99.90
20246;DHT22;10281;54.406;18.556;2023-06-26T02:15:20;13.60;99.90
20246;DHT22;10281;54.406;18.556;2023-06-26T02:17:47;13.60;99.90
20246;DHT22;10281;54.406;18.556;2023-06-26T02:20:15;13.70;99.90
20246;DHT22;10281;54.406;18.556;2023-06-26T02:22:42;13.70;99.90
20246;DHT22;10281;54.406;18.556;2023-06-26T02:25:09;13.70;99.90
20246;DHT22;10281;54.406;18.556;2023-06-26T02:27:36;13.70;99.90
20246;DHT22;10281;54.406;18.556;2023-06-26T02:30:03;13.70;99.90
20246;DHT22;10281;54.406;18.556;2023-06-26T02:32:30;13.70;99.90
20246;DHT22;10281;54.406;18.556;2023-06-26T02:34:57;13.70;99.90
20246;DHT22;10281;54.406;18.556;2023-06-26T02:37:23;13.70;99.90
20246;DHT22;10281;54.406;18.556;2023-06-26T02:39:50;13.70;99.90
20246;DHT22;10281;54.406;18.556;2023-06-26T02:42:17;13.70;99.90
20246;DHT22;10281;54.406;18.556;2023-06-26T02:44:43;13.70;99.90
20246;DHT22;10281;54.406;18.556;2023-06-26T02:47:10;13.70;99.90
20246;DHT22;10281;54.406;18.556;2023-06-26T02:49:36;13.60;99.90
20246;DHT22;10281;54.406;18.556;2023-06-26T02:52:03;13.70;99.90
20246;DHT22;10281;54.406;18.556;2023-06-26T02:54:30;13.70;99.90
20246;DHT22;10281;54.406;18.556;2023-06-26T02:56:57;13.70;99.90
20246;DHT22;10281;54.406;18.556;2023-06-26T02:59:23;13.70;99.90
20246;DHT22;10281;54.406;18.556;2023-06-26T03:01:50;13.70;99.90
20246;DHT22;10281;54.406;18.556;2023-06-26T03:04:16;13.70;99.90
20246;DHT22;10281;54.406;18.556;2023-06-26T03:06:44;13.70;99.90
20246;DHT22;10281;54.406;18.556;2023-06-26T03:09:10;13.70;99.90
20246;DHT22;10281;54.406;18.556;2023-06-26T03:11:37;13.70;99.90
20246;DHT22;10281;54.406;18.556;2023-06-26T03:14:03;13.70;99.90
20246;DHT22;10281;54.406;18.556;2023-06-26T03:16:30;13.70;99.90
20246;DHT22;10281;54.406;18.556;2023-06-26T03:18:57;13.70;99.90
20246;DHT22;10281;54.406;18.556;2023-06-26T03:21:24;13.80;99.90
20246;DHT22;10281;54.406;18.556;2023-06-26T03:23:50;13.80;99.90
20246;DHT22;10281;54.406;18.556;2023-06-26T03:26:17;13.90;99.90
20246;DHT22;10281;54.406;18.556;2023-06-26T03:28:44;13.90;99.90
20246;DHT22;10281;54.406;18.556;2023-06-26T03:31:10;13.90;99.90
20246;DHT22;10281;54.406;18.556;2023-06-26T03:33:37;13.90;99.90
20246;DHT22;10281;54.406;18.556;2023-06-26T03:36:04;14.00;99.90
20246;DHT22;10281;54.406;18.556;2023-06-26T03:38:32;14.00;99.90
20246;DHT22;10281;54.406;18.556;2023-06-26T03:40:59;14.00;99.90
20246;DHT22;10281;54.406;18.556;2023-06-26T03:43:25;14.10;99.90
20246;DHT22;10281;54.406;18.556;2023-06-26T03:45:52;14.10;99.90
20246;DHT22;10281;54.406;18.556;2023-06-26T03:48:18;14.20;99.90
20246;DHT22;10281;54.406;18.556;2023-06-26T03:50:45;14.30;99.90
20246;DHT22;10281;54.406;18.556;2023-06-26T03:53:12;14.30;99.90
20246;DHT22;10281;54.406;18.556;2023-06-26T03:55:38;14.40;99.90
20246;DHT22;10281;54.406;18.556;2023-06-26T03:58:05;14.50;99.90
20246;DHT22;10281;54.406;18.556;2023-06-26T04:00:32;14.60;99.90
20246;DHT22;10281;54.406;18.556;2023-06-26T04:02:58;14.70;99.90
20246;DHT22;10281;54.406;18.556;2023-06-26T04:05:25;14.80;99.90
20246;DHT22;10281;54.406;18.556;2023-06-26T04:07:52;14.80;99.90
20246;DHT22;10281;54.406;18.556;2023-06-26T04:10:19;14.90;99.90
20246;DHT22;10281;54.406;18.556;2023-06-26T04:12:47;15.00;99.90
20246;DHT22;10281;54.406;18.556;2023-06-26T04:15:14;15.10;99.90
20246;DHT22;10281;54.406;18.556;2023-06-26T04:17:41;15.20;99.90
20246;DHT22;10281;54.406;18.556;2023-06-26T04:20:08;15.30;99.90
20246;DHT22;10281;54.406;18.556;2023-06-26T04:22:35;15.50;99.90
20246;DHT22;10281;54.406;18.556;2023-06-26T04:25:03;15.60;99.90
20246;DHT22;10281;54.406;18.556;2023-06-26T04:27:30;15.70;99.90
20246;DHT22;10281;54.406;18.556;2023-06-26T04:29:57;15.80;99.90
20246;DHT22;10281;54.406;18.556;2023-06-26T04:32:23;16.00;99.90
20246;DHT22;10281;54.406;18.556;2023-06-26T04:34:50;16.10;99.90
20246;DHT22;10281;54.406;18.556;2023-06-26T04:37:17;16.20;99.90
20246;DHT22;10281;54.406;18.556;2023-06-26T04:39:43;16.30;99.90
20246;DHT22;10281;54.406;18.556;2023-06-26T04:42:10;16.40;99.90
20246;DHT22;10281;54.406;18.556;2023-06-26T04:44:38;16.60;99.90
20246;DHT22;10281;54.406;18.556;2023-06-26T04:47:07;16.70;99.90
20246;DHT22;10281;54.406;18.556;2023-06-26T04:49:34;16.80;99.90
20246;DHT22;10281;54.406;18.556;2023-06-26T04:52:01;16.90;99.90
20246;DHT22;10281;54.406;18.556;2023-06-26T04:54:27;17.10;99.90
20246;DHT22;10281;54.406;18.556;2023-06-26T04:56:54;17.20;99.90
20246;DHT22;10281;54.406;18.556;2023-06-26T04:59:22;17.30;99.90
20246;DHT22;10281;54.406;18.556;2023-06-26T05:01:49;17.40;99.90
20246;DHT22;10281;54.406;18.556;2023-06-26T05:04:16;17.60;99.90
20246;DHT22;10281;54.406;18.556;2023-06-26T05:06:42;17.70;99.90
20246;DHT22;10281;54.406;18.556;2023-06-26T05:09:09;17.80;99.90
20246;DHT22;10281;54.406;18.556;2023-06-26T05:11:37;18.00;99.90
20246;DHT22;10281;54.406;18.556;2023-06-26T05:14:03;18.10;99.90
20246;DHT22;10281;54.406;18.556;2023-06-26T05:16:32;18.20;99.90
20246;DHT22;10281;54.406;18.556;2023-06-26T05:19:00;18.30;99.90
20246;DHT22;10281;54.406;18.556;2023-06-26T05:21:27;18.50;99.90
20246;DHT22;10281;54.406;18.556;2023-06-26T05:23:56;18.60;99.90
20246;DHT22;10281;54.406;18.556;2023-06-26T05:26:23;18.70;99.90
20246;DHT22;10281;54.406;18.556;2023-06-26T05:28:51;18.80;99.90
20246;DHT22;10281;54.406;18.556;2023-06-26T05:31:18;18.90;99.90
20246;DHT22;10281;54.406;18.556;2023-06-26T05:33:45;19.00;99.90
20246;DHT22;10281;54.406;18.556;2023-06-26T05:36:13;19.10;99.90
20246;DHT22;10281;54.406;18.556;2023-06-26T05:38:42;19.30;99.90
20246;DHT22;10281;54.406;18.556;2023-06-26T05:41:09;19.40;99.90
20246;DHT22;10281;54.406;18.556;2023-06-26T05:43:36;19.50;99.90
20246;DHT22;10281;54.406;18.556;2023-06-26T05:46:03;19.60;99.90
20246;DHT22;10281;54.406;18.556;2023-06-26T05:48:29;19.70;99.90
20246;DHT22;10281;54.406;18.556;2023-06-26T05:50:56;19.90;99.90
20246;DHT22;10281;54.406;18.556;2023-06-26T05:53:24;20.00;99.90
20246;DHT22;10281;54.406;18.556;2023-06-26T05:55:51;20.10;99.90
20246;DHT22;10281;54.406;18.556;2023-06-26T05:58:18;20.10;99.90
20246;DHT22;10281;54.406;18.556;2023-06-26T06:00:46;20.30;99.90
20246;DHT22;10281;54.406;18.556;2023-06-26T06:03:13;20.40;99.90
20246;DHT22;10281;54.406;18.556;2023-06-26T06:05:39;20.40;99.90
20246;DHT22;10281;54.406;18.556;2023-06-26T06:08:06;20.50;99.90
20246;DHT22;10281;54.406;18.556;2023-06-26T06:10:32;20.60;99.90
20246;DHT22;10281;54.406;18.556;2023-06-26T06:12:59;20.70;99.90
20246;DHT22;10281;54.406;18.556;2023-06-26T06:15:26;20.70;99.90
20246;DHT22;10281;54.406;18.556;2023-06-26T06:17:52;20.70;99.90
20246;DHT22;10281;54.406;18.556;2023-06-26T06:20:19;20.80;99.90
20246;DHT22;10281;54.406;18.556;2023-06-26T06:22:46;20.80;99.90
20246;DHT22;10281;54.406;18.556;2023-06-26T06:25:15;20.80;99.90
20246;DHT22;10281;54.406;18.556;2023-06-26T06:27:42;20.90;99.90
20246;DHT22;10281;54.406;18.556;2023-06-26T06:30:10;20.90;99.90
20246;DHT22;10281;54.406;18.556;2023-06-26T06:32:37;21.00;99.90
20246;DHT22;10281;54.406;18.556;2023-06-26T06:35:04;21.00;99.90
20246;DHT22;10281;54.406;18.556;2023-06-26T06:37:33;21.00;99.90
20246;DHT22;10281;54.406;18.556;2023-06-26T06:39:59;21.00;99.90
20246;DHT22;10281;54.406;18.556;2023-06-26T06:42:26;21.10;99.90
20246;DHT22;10281;54.406;18.556;2023-06-26T06:44:52;21.20;99.90
20246;DHT22;10281;54.406;18.556;2023-06-26T06:47:19;21.30;99.90
20246;DHT22;10281;54.406;18.556;2023-06-26T06:49:46;21.30;99.90
20246;DHT22;10281;54.406;18.556;2023-06-26T06:52:12;21.30;99.90
20246;DHT22;10281;54.406;18.556;2023-06-26T06:54:54;21.40;99.90
20246;DHT22;10281;54.406;18.556;2023-06-26T06:57:22;21.40;99.90
20246;DHT22;10281;54.406;18.556;2023-06-26T06:59:48;21.50;99.90
20246;DHT22;10281;54.406;18.556;2023-06-26T07:02:17;21.50;99.90
20246;DHT22;10281;54.406;18.556;2023-06-26T07:04:44;21.50;99.90
20246;DHT22;10281;54.406;18.556;2023-06-26T07:07:11;21.50;99.90
20246;DHT22;10281;54.406;18.556;2023-06-26T07:09:39;21.50;99.90
20246;DHT22;10281;54.406;18.556;2023-06-26T07:12:06;21.60;99.90
20246;DHT22;10281;54.406;18.556;2023-06-26T07:14:33;21.60;99.90
20246;DHT22;10281;54.406;18.556;2023-06-26T07:17:00;21.60;99.90
20246;DHT22;10281;54.406;18.556;2023-06-26T07:19:26;21.60;99.90
20246;DHT22;10281;54.406;18.556;2023-06-26T07:21:53;21.60;99.90
20246;DHT22;10281;54.406;18.556;2023-06-26T07:24:20;21.60;99.90
20246;DHT22;10281;54.406;18.556;2023-06-26T07:26:46;21.60;99.90
20246;DHT22;10281;54.406;18.556;2023-06-26T07:29:13;21.60;99.90
20246;DHT22;10281;54.406;18.556;2023-06-26T07:31:39;21.60;99.90
20246;DHT22;10281;54.406;18.556;2023-06-26T07:34:06;21.60;99.90
20246;DHT22;10281;54.406;18.556;2023-06-26T07:36:33;21.60;99.90
20246;DHT22;10281;54.406;18.556;2023-06-26T07:38:59;21.60;99.90
20246;DHT22;10281;54.406;18.556;2023-06-26T07:41:26;21.60;99.90
20246;DHT22;10281;54.406;18.556;2023-06-26T07:43:55;21.60;99.90
20246;DHT22;10281;54.406;18.556;2023-06-26T07:46:21;21.60;99.90
20246;DHT22;10281;54.406;18.556;2023-06-26T07:48:48;21.60;99.90
20246;DHT22;10281;54.406;18.556;2023-06-26T07:51:15;21.70;99.90
20246;DHT22;10281;54.406;18.556;2023-06-26T07:53:41;21.70;99.90
20246;DHT22;10281;54.406;18.556;2023-06-26T07:56:08;21.80;99.90
20246;DHT22;10281;54.406;18.556;2023-06-26T07:58:34;21.80;99.90
20246;DHT22;10281;54.406;18.556;2023-06-26T08:01:01;21.90;99.90
20246;DHT22;10281;54.406;18.556;2023-06-26T08:03:27;21.90;99.90
20246;DHT22;10281;54.406;18.556;2023-06-26T08:05:54;21.90;99.90
20246;DHT22;10281;54.406;18.556;2023-06-26T08:08:21;22.00;99.90
20246;DHT22;10281;54.406;18.556;2023-06-26T08:10:48;21.90;99.90
20246;DHT22;10281;54.406;18.556;2023-06-26T08:13:14;22.00;99.90
20246;DHT22;10281;54.406;18.556;2023-06-26T08:15:41;22.00;99.90
20246;DHT22;10281;54.406;18.556;2023-06-26T08:18:07;22.00;99.90
20246;DHT22;10281;54.406;18.556;2023-06-26T08:20:34;22.00;99.90
20246;DHT22;10281;54.406;18.556;2023-06-26T08:23:03;22.00;99.90
20246;DHT22;10281;54.406;18.556;2023-06-26T08:25:30;22.00;99.90
20246;DHT22;10281;54.406;18.556;2023-06-26T08:27:57;22.00;99.90
20246;DHT22;10281;54.406;18.556;2023-06-26T08:30:23;22.10;99.90
20246;DHT22;10281;54.406;18.556;2023-06-26T08:32:52;22.10;99.90
20246;DHT22;10281;54.406;18.556;2023-06-26T08:35:18;22.10;99.90
20246;DHT22;10281;54.406;18.556;2023-06-26T08:37:45;22.20;99.90
20246;DHT22;10281;54.406;18.556;2023-06-26T08:40:12;22.20;99.90
20246;DHT22;10281;54.406;18.556;2023-06-26T08:42:41;22.30;99.90
20246;DHT22;10281;54.406;18.556;2023-06-26T08:45:08;22.20;99.90
20246;DHT22;10281;54.406;18.556;2023-06-26T08:47:35;22.30;99.90
20246;DHT22;10281;54.406;18.556;2023-06-26T08:50:08;22.40;99.90
20246;DHT22;10281;54.406;18.556;2023-06-26T08:52:41;22.40;99.90
20246;DHT22;10281;54.406;18.556;2023-06-26T08:55:09;22.40;99.90
20246;DHT22;10281;54.406;18.556;2023-06-26T08:57:37;22.40;99.90
20246;DHT22;10281;54.406;18.556;2023-06-26T09:00:05;22.40;99.90
20246;DHT22;10281;54.406;18.556;2023-06-26T09:02:36;22.40;99.90
20246;DHT22;10281;54.406;18.556;2023-06-26T09:05:03;22.50;99.90
20246;DHT22;10281;54.406;18.556;2023-06-26T09:07:29;22.40;99.90
20246;DHT22;10281;54.406;18.556;2023-06-26T09:09:56;22.40;99.90
20246;DHT22;10281;54.406;18.556;2023-06-26T09:12:23;22.50;99.90
20246;DHT22;10281;54.406;18.556;2023-06-26T09:14:50;22.50;99.90
20246;DHT22;10281;54.406;18.556;2023-06-26T09:17:16;22.60;99.90
20246;DHT22;10281;54.406;18.556;2023-06-26T09:19:45;22.60;99.90
20246;DHT22;10281;54.406;18.556;2023-06-26T09:22:14;22.60;99.90
20246;DHT22;10281;54.406;18.556;2023-06-26T09:24:41;22.50;99.90
20246;DHT22;10281;54.406;18.556;2023-06-26T09:27:09;22.50;99.90
20246;DHT22;10281;54.406;18.556;2023-06-26T09:29:37;22.60;99.90
20246;DHT22;10281;54.406;18.556;2023-06-26T09:32:04;22.60;99.90
20246;DHT22;10281;54.406;18.556;2023-06-26T09:34:31;22.60;99.90
20246;DHT22;10281;54.406;18.556;2023-06-26T09:36:59;22.70;99.90
20246;DHT22;10281;54.406;18.556;2023-06-26T09:39:30;22.60;99.90
20246;DHT22;10281;54.406;18.556;2023-06-26T09:41:57;22.60;99.90
20246;DHT22;10281;54.406;18.556;2023-06-26T09:44:25;22.60;99.90
20246;DHT22;10281;54.406;18.556;2023-06-26T09:46:51;22.60;99.90
20246;DHT22;10281;54.406;18.556;2023-06-26T09:49:20;22.70;99.90
20246;DHT22;10281;54.406;18.556;2023-06-26T09:51:47;22.80;99.90
20246;DHT22;10281;54.406;18.556;2023-06-26T09:54:16;22.80;99.90
20246;DHT22;10281;54.406;18.556;2023-06-26T09:56:44;22.80;99.90
20246;DHT22;10281;54.406;18.556;2023-06-26T09:59:11;22.80;98.00
20246;DHT22;10281;54.406;18.556;2023-06-26T10:01:41;22.70;96.90
20246;DHT22;10281;54.406;18.556;2023-06-26T10:04:08;22.70;99.20
20246;DHT22;10281;54.406;18.556;2023-06-26T10:06:38;22.80;97.40
20246;DHT22;10281;54.406;18.556;2023-06-26T10:09:05;22.90;98.10
20246;DHT22;10281;54.406;18.556;2023-06-26T10:11:37;22.80;98.30
20246;DHT22;10281;54.406;18.556;2023-06-26T10:14:04;22.80;97.90
20246;DHT22;10281;54.406;18.556;2023-06-26T10:16:34;22.80;98.50
20246;DHT22;10281;54.406;18.556;2023-06-26T10:19:05;22.80;98.50
20246;DHT22;10281;54.406;18.556;2023-06-26T10:21:34;22.80;98.70
20246;DHT22;10281;54.406;18.556;2023-06-26T10:24:02;22.80;97.60
20246;DHT22;10281;54.406;18.556;2023-06-26T10:26:30;22.90;97.10
20246;DHT22;10281;54.406;18.556;2023-06-26T10:28:58;22.90;97.80
20246;DHT22;10281;54.406;18.556;2023-06-26T10:31:27;23.00;97.20
20246;DHT22;10281;54.406;18.556;2023-06-26T10:33:55;23.10;97.20
20246;DHT22;10281;54.406;18.556;2023-06-26T10:36:29;23.10;97.00
20246;DHT22;10281;54.406;18.556;2023-06-26T10:38:58;23.10;97.70
20246;DHT22;10281;54.406;18.556;2023-06-26T10:41:26;23.20;96.70
20246;DHT22;10281;54.406;18.556;2023-06-26T10:44:16;23.20;96.70
20246;DHT22;10281;54.406;18.556;2023-06-26T10:46:51;23.20;97.20
20246;DHT22;10281;54.406;18.556;2023-06-26T10:49:20;23.30;97.60
20246;DHT22;10281;54.406;18.556;2023-06-26T10:51:48;23.30;96.70
20246;DHT22;10281;54.406;18.556;2023-06-26T10:54:18;23.30;97.00
20246;DHT22;10281;54.406;18.556;2023-06-26T10:56:47;23.20;97.50
20246;DHT22;10281;54.406;18.556;2023-06-26T10:59:20;23.10;97.60
20246;DHT22;10281;54.406;18.556;2023-06-26T11:01:55;23.10;97.40
20246;DHT22;10281;54.406;18.556;2023-06-26T11:12:14;23.10;97.20
20246;DHT22;10281;54.406;18.556;2023-06-26T11:14:44;23.20;96.40
20246;DHT22;10281;54.406;18.556;2023-06-26T11:17:11;23.20;96.40
20246;DHT22;10281;54.406;18.556;2023-06-26T11:19:42;23.10;96.70
20246;DHT22;10281;54.406;18.556;2023-06-26T11:22:09;23.10;97.20
20246;DHT22;10281;54.406;18.556;2023-06-26T11:24:36;23.20;97.10
20246;DHT22;10281;54.406;18.556;2023-06-26T11:27:04;23.30;96.10
20246;DHT22;10281;54.406;18.556;2023-06-26T11:29:31;23.40;96.00
20246;DHT22;10281;54.406;18.556;2023-06-26T11:32:00;23.40;96.10
20246;DHT22;10281;54.406;18.556;2023-06-26T11:34:30;23.30;95.90
20246;DHT22;10281;54.406;18.556;2023-06-26T11:36:58;23.30;95.80
20246;DHT22;10281;54.406;18.556;2023-06-26T11:39:26;23.30;95.80
20246;DHT22;10281;54.406;18.556;2023-06-26T11:41:53;23.50;94.60
20246;DHT22;10281;54.406;18.556;2023-06-26T11:44:21;23.70;95.30
20246;DHT22;10281;54.406;18.556;2023-06-26T11:46:51;23.60;95.60
20246;DHT22;10281;54.406;18.556;2023-06-26T11:49:21;23.60;96.00
20246;DHT22;10281;54.406;18.556;2023-06-26T11:51:49;23.50;95.60
20246;DHT22;10281;54.406;18.556;2023-06-26T11:54:24;23.60;96.00
20246;DHT22;10281;54.406;18.556;2023-06-26T11:56:56;23.60;95.90
20246;DHT22;10281;54.406;18.556;2023-06-26T11:59:24;23.60;96.10
20246;DHT22;10281;54.406;18.556;2023-06-26T12:01:52;23.70;96.00
20246;DHT22;10281;54.406;18.556;2023-06-26T12:04:20;23.60;95.70
20246;DHT22;10281;54.406;18.556;2023-06-26T12:06:49;23.60;94.40
20246;DHT22;10281;54.406;18.556;2023-06-26T12:09:18;23.70;95.10
20246;DHT22;10281;54.406;18.556;2023-06-26T12:11:47;23.80;94.70
20246;DHT22;10281;54.406;18.556;2023-06-26T12:14:15;23.80;94.10
20246;DHT22;10281;54.406;18.556;2023-06-26T12:16:43;23.80;93.20
20246;DHT22;10281;54.406;18.556;2023-06-26T12:19:10;23.80;94.20
20246;DHT22;10281;54.406;18.556;2023-06-26T12:21:46;23.80;94.30
20246;DHT22;10281;54.406;18.556;2023-06-26T12:24:15;23.70;93.30
20246;DHT22;10281;54.406;18.556;2023-06-26T12:26:45;23.70;92.30
20246;DHT22;10281;54.406;18.556;2023-06-26T12:29:14;23.90;92.20
20246;DHT22;10281;54.406;18.556;2023-06-26T12:31:42;23.90;92.30
20246;DHT22;10281;54.406;18.556;2023-06-26T12:34:12;23.80;92.40
20246;DHT22;10281;54.406;18.556;2023-06-26T12:36:42;23.80;92.60
20246;DHT22;10281;54.406;18.556;2023-06-26T12:39:10;23.80;91.50
20246;DHT22;10281;54.406;18.556;2023-06-26T12:41:45;23.90;92.70
20246;DHT22;10281;54.406;18.556;2023-06-26T12:44:20;23.90;92.40
20246;DHT22;10281;54.406;18.556;2023-06-26T12:46:49;23.90;92.00
20246;DHT22;10281;54.406;18.556;2023-06-26T12:49:17;23.80;92.20
20246;DHT22;10281;54.406;18.556;2023-06-26T12:51:43;23.80;92.50
20246;DHT22;10281;54.406;18.556;2023-06-26T12:54:10;23.80;92.60
20246;DHT22;10281;54.406;18.556;2023-06-26T12:56:37;23.80;92.50
20246;DHT22;10281;54.406;18.556;2023-06-26T12:59:03;23.90;92.60
20246;DHT22;10281;54.406;18.556;2023-06-26T13:01:30;23.90;92.30
20246;DHT22;10281;54.406;18.556;2023-06-26T13:03:57;23.80;92.50
20246;DHT22;10281;54.406;18.556;2023-06-26T13:06:23;23.80;92.30
20246;DHT22;10281;54.406;18.556;2023-06-26T13:08:50;23.80;91.80
20246;DHT22;10281;54.406;18.556;2023-06-26T13:11:16;23.80;92.10
20246;DHT22;10281;54.406;18.556;2023-06-26T13:13:43;23.70;91.80
20246;DHT22;10281;54.406;18.556;2023-06-26T13:16:10;23.70;91.80
20246;DHT22;10281;54.406;18.556;2023-06-26T13:18:37;23.70;92.40
20246;DHT22;10281;54.406;18.556;2023-06-26T13:21:04;23.70;92.90
20246;DHT22;10281;54.406;18.556;2023-06-26T13:23:30;23.60;93.10
20246;DHT22;10281;54.406;18.556;2023-06-26T13:25:57;23.60;93.50
20246;DHT22;10281;54.406;18.556;2023-06-26T13:28:23;23.60;94.00
20246;DHT22;10281;54.406;18.556;2023-06-26T13:30:50;23.60;94.20
20246;DHT22;10281;54.406;18.556;2023-06-26T13:33:17;23.50;94.20
20246;DHT22;10281;54.406;18.556;2023-06-26T13:35:43;23.50;93.90
20246;DHT22;10281;54.406;18.556;2023-06-26T13:38:10;23.50;94.40
20246;DHT22;10281;54.406;18.556;2023-06-26T13:40:36;23.50;94.70
20246;DHT22;10281;54.406;18.556;2023-06-26T13:43:03;23.50;94.30
20246;DHT22;10281;54.406;18.556;2023-06-26T13:45:29;23.50;92.60
20246;DHT22;10281;54.406;18.556;2023-06-26T13:47:56;23.50;93.70
20246;DHT22;10281;54.406;18.556;2023-06-26T13:50:23;23.50;93.40
20246;DHT22;10281;54.406;18.556;2023-06-26T13:52:49;23.40;93.40
20246;DHT22;10281;54.406;18.556;2023-06-26T13:55:17;23.30;93.30
20246;DHT22;10281;54.406;18.556;2023-06-26T13:57:44;23.30;93.10
20246;DHT22;10281;54.406;18.556;2023-06-26T14:00:11;23.30;92.60
20246;DHT22;10281;54.406;18.556;2023-06-26T14:02:38;23.40;93.20
20246;DHT22;10281;54.406;18.556;2023-06-26T14:05:05;23.40;91.80
20246;DHT22;10281;54.406;18.556;2023-06-26T14:07:32;23.50;91.10
20246;DHT22;10281;54.406;18.556;2023-06-26T14:09:58;23.50;90.50
20246;DHT22;10281;54.406;18.556;2023-06-26T14:12:25;23.50;90.90
20246;DHT22;10281;54.406;18.556;2023-06-26T14:14:52;23.50;90.20
20246;DHT22;10281;54.406;18.556;2023-06-26T14:17:18;23.50;91.40
20246;DHT22;10281;54.406;18.556;2023-06-26T14:19:45;23.50;91.70
20246;DHT22;10281;54.406;18.556;2023-06-26T14:22:12;23.50;92.00
20246;DHT22;10281;54.406;18.556;2023-06-26T14:24:39;23.50;91.60
20246;DHT22;10281;54.406;18.556;2023-06-26T14:27:05;23.50;91.00
20246;DHT22;10281;54.406;18.556;2023-06-26T14:29:32;23.60;91.50
20246;DHT22;10281;54.406;18.556;2023-06-26T14:31:58;23.60;91.60
20246;DHT22;10281;54.406;18.556;2023-06-26T14:34:25;23.60;91.90
20246;DHT22;10281;54.406;18.556;2023-06-26T14:36:52;23.60;91.20
20246;DHT22;10281;54.406;18.556;2023-06-26T14:39:18;23.60;91.30
20246;DHT22;10281;54.406;18.556;2023-06-26T14:41:45;23.60;91.40
20246;DHT22;10281;54.406;18.556;2023-06-26T14:44:14;23.60;91.70
20246;DHT22;10281;54.406;18.556;2023-06-26T14:46:41;23.50;91.50
20246;DHT22;10281;54.406;18.556;2023-06-26T14:49:08;23.50;91.30
20246;DHT22;10281;54.406;18.556;2023-06-26T14:51:35;23.50;91.40
20246;DHT22;10281;54.406;18.556;2023-06-26T14:54:04;23.50;90.40
20246;DHT22;10281;54.406;18.556;2023-06-26T14:56:30;23.60;90.20
20246;DHT22;10281;54.406;18.556;2023-06-26T14:58:57;23.60;90.90
20246;DHT22;10281;54.406;18.556;2023-06-26T15:01:23;23.60;91.30
20246;DHT22;10281;54.406;18.556;2023-06-26T15:03:50;23.50;91.70
20246;DHT22;10281;54.406;18.556;2023-06-26T15:06:17;23.50;92.10
20246;DHT22;10281;54.406;18.556;2023-06-26T15:08:44;23.50;92.00
20246;DHT22;10281;54.406;18.556;2023-06-26T15:11:10;23.40;92.60
20246;DHT22;10281;54.406;18.556;2023-06-26T15:13:37;23.30;92.90
20246;DHT22;10281;54.406;18.556;2023-06-26T15:16:03;23.30;92.60
20246;DHT22;10281;54.406;18.556;2023-06-26T15:18:30;23.30;92.70
20246;DHT22;10281;54.406;18.556;2023-06-26T15:20:57;23.30;93.00
20246;DHT22;10281;54.406;18.556;2023-06-26T15:23:23;23.20;93.00
20246;DHT22;10281;54.406;18.556;2023-06-26T15:25:50;23.20;93.10